Terminal Aerodrome Forecast
Issued by NWS

Home | Current Version | Previous Version | Text Only | Print | Product List | Glossary On
Versions: 1 2 3 4 5 6 7 8 9 10 11 12 13 14 15 16 17 18 19
000
FTUS46 KOTX 241210 AAA
TAFSFF
TAF AMD
KSFF 241210Z 2412/2512 06004KT 2SM BR BKN004
      TEMPO 2412/2415 1/2SM FG VV002
     FM241600 VRB02KT P6SM SKC
     FM250800 VRB03KT P6SM BKN250=

USA.gov is the U.S. government's official web portal to all federal, state and local government web resources and services.